createdAt,value
2023-04-22T00:01:12.930Z,13.64
2023-04-22T00:03:42.274Z,13.64
2023-04-22T00:06:09.647Z,13.69
2023-04-22T00:08:36.961Z,13.63
2023-04-22T00:11:04.217Z,13.47
2023-04-22T00:13:31.354Z,13.34
2023-04-22T00:15:58.434Z,13.31
2023-04-22T00:18:26.090Z,13.48
2023-04-22T00:20:53.224Z,13.47
2023-04-22T00:23:20.744Z,13.41
2023-04-22T00:25:47.877Z,13.48
2023-04-22T00:28:14.970Z,13.48
2023-04-22T00:30:42.171Z,13.39
2023-04-22T00:33:09.492Z,13.34
2023-04-22T00:35:36.935Z,13.39
2023-04-22T00:38:04.056Z,13.34
2023-04-22T00:40:31.293Z,13.41
2023-04-22T00:42:59.705Z,13.37
2023-04-22T00:45:27.219Z,13.40
2023-04-22T00:47:54.959Z,13.24
2023-04-22T00:50:22.120Z,13.23
2023-04-22T00:52:49.484Z,13.21
2023-04-22T00:55:16.615Z,13.31
2023-04-22T00:57:44.329Z,13.26
2023-04-22T01:00:11.687Z,13.30
2023-04-22T01:02:39.118Z,13.36
2023-04-22T01:05:09.420Z,13.42
2023-04-22T01:07:36.803Z,13.48
2023-04-22T01:10:04.732Z,13.34
2023-04-22T01:12:31.806Z,13.19
2023-04-22T01:14:58.952Z,13.13
2023-04-22T01:17:26.077Z,13.06
2023-04-22T01:19:53.322Z,12.87
2023-04-22T01:22:20.864Z,12.97
2023-04-22T01:24:47.963Z,13.06
2023-04-22T01:27:15.080Z,13.09
2023-04-22T01:29:42.549Z,13.08
2023-04-22T01:32:10.490Z,13.13
2023-04-22T01:34:37.609Z,13.20
2023-04-22T01:37:05.909Z,13.25
2023-04-22T01:39:33.193Z,13.28
2023-04-22T01:42:02.107Z,13.27
2023-04-22T01:44:29.288Z,13.27
2023-04-22T01:46:57.157Z,13.16
2023-04-22T01:49:24.242Z,13.03
2023-04-22T01:51:51.409Z,12.95
2023-04-22T01:54:21.000Z,12.95
2023-04-22T01:56:54.514Z,12.98
2023-04-22T01:59:22.080Z,12.92
2023-04-22T02:01:50.286Z,12.98
2023-04-22T02:04:18.672Z,13.03
2023-04-22T02:06:45.735Z,13.07
2023-04-22T02:09:12.847Z,13.13
2023-04-22T02:11:39.884Z,13.11
2023-04-22T02:14:07.008Z,13.20
2023-04-22T02:16:34.187Z,13.31
2023-04-22T02:19:01.355Z,13.29
2023-04-22T02:21:29.419Z,13.24
2023-04-22T02:23:56.560Z,13.34
2023-04-22T02:26:24.984Z,13.28
2023-04-22T02:28:52.676Z,13.17
2023-04-22T02:31:19.871Z,13.06
2023-04-22T02:33:46.973Z,13.01
2023-04-22T02:36:15.449Z,13.04
2023-04-22T02:38:42.597Z,12.91
2023-04-22T02:41:09.724Z,12.78
2023-04-22T02:43:37.291Z,12.66
2023-04-22T02:46:04.921Z,12.62
2023-04-22T02:48:32.174Z,12.76
2023-04-22T02:50:59.224Z,12.64
2023-04-22T02:53:26.334Z,12.60
2023-04-22T02:55:55.720Z,12.67
2023-04-22T02:58:22.957Z,12.81
2023-04-22T03:00:50.124Z,12.89
2023-04-22T03:03:17.531Z,12.84
2023-04-22T03:05:44.723Z,12.82
2023-04-22T03:08:11.780Z,12.90
2023-04-22T03:10:38.960Z,12.89
2023-04-22T03:13:06.952Z,12.85
2023-04-22T03:15:34.264Z,12.74
2023-04-22T03:18:01.410Z,12.76
2023-04-22T03:20:29.147Z,12.81
2023-04-22T03:22:56.237Z,12.75
2023-04-22T03:25:24.842Z,12.82
2023-04-22T03:27:56.136Z,12.67
2023-04-22T03:30:23.904Z,12.77
2023-04-22T03:32:52.541Z,12.79
2023-04-22T03:35:32.771Z,12.78
2023-04-22T03:38:01.678Z,12.82
2023-04-22T03:40:33.098Z,12.61
2023-04-22T03:43:03.678Z,12.51
2023-04-22T03:45:30.918Z,12.43
2023-04-22T03:48:12.505Z,12.47
2023-04-22T03:50:45.060Z,12.58
2023-04-22T03:53:12.797Z,12.58
2023-04-22T03:55:40.143Z,12.56
2023-04-22T03:58:07.303Z,12.53
2023-04-22T04:00:34.807Z,12.48
2023-04-22T04:03:10.124Z,12.50
2023-04-22T04:05:37.652Z,12.49
2023-04-22T04:08:04.826Z,12.52
2023-04-22T04:10:32.795Z,12.63
2023-04-22T04:13:00.873Z,12.67
2023-04-22T04:15:32.641Z,12.74
2023-04-22T04:18:01.413Z,12.78
2023-04-22T04:20:31.266Z,12.72
2023-04-22T04:22:59.138Z,12.75
2023-04-22T04:25:26.939Z,12.77
2023-04-22T04:27:54.333Z,12.84
2023-04-22T04:30:21.860Z,12.83
2023-04-22T04:32:54.136Z,12.86
2023-04-22T04:35:21.530Z,12.84
2023-04-22T04:37:53.896Z,12.70
2023-04-22T04:40:22.004Z,12.58
2023-04-22T04:43:09.549Z,12.41
2023-04-22T04:45:48.382Z,12.50
2023-04-22T04:48:19.826Z,12.62
2023-04-22T04:50:54.122Z,12.55
2023-04-22T04:53:22.623Z,12.58
2023-04-22T04:55:49.848Z,12.57
2023-04-22T04:58:22.903Z,12.59
2023-04-22T05:01:03.012Z,12.60
2023-04-22T05:03:30.734Z,12.65
2023-04-22T05:05:58.138Z,12.82
2023-04-22T05:08:26.875Z,12.90
2023-04-22T05:11:00.816Z,12.87
2023-04-22T05:13:28.188Z,12.90
2023-04-22T05:15:56.103Z,12.98
2023-04-22T05:18:23.864Z,13.01
2023-04-22T05:20:51.081Z,12.95
2023-04-22T05:23:20.288Z,13.08
2023-04-22T05:25:52.792Z,13.17
2023-04-22T05:28:20.825Z,13.25
2023-04-22T05:30:52.299Z,13.26
2023-04-22T05:33:19.397Z,13.40
2023-04-22T05:35:46.537Z,13.35
2023-04-22T05:38:13.662Z,13.43
2023-04-22T05:40:42.383Z,13.56
2023-04-22T05:43:12.183Z,13.66
2023-04-22T05:45:43.001Z,13.63
2023-04-22T05:48:12.551Z,13.60
2023-04-22T05:50:47.489Z,13.60
2023-04-22T05:53:14.886Z,13.54
2023-04-22T05:55:44.072Z,13.48
2023-04-22T05:58:11.221Z,13.56
2023-04-22T06:00:49.768Z,13.62
2023-04-22T06:03:39.872Z,13.54
2023-04-22T06:06:07.450Z,13.58
2023-04-22T06:08:34.687Z,13.52
2023-04-22T06:11:01.738Z,13.50
2023-04-22T06:13:31.744Z,13.56
2023-04-22T06:15:58.984Z,13.61
2023-04-22T06:18:27.443Z,13.67
2023-04-22T06:20:55.830Z,13.83
2023-04-22T06:23:23.060Z,13.97
2023-04-22T06:25:50.245Z,14.15
2023-04-22T06:28:17.836Z,14.36
2023-04-22T06:30:46.288Z,14.62
2023-04-22T06:33:13.598Z,14.96
2023-04-22T06:35:41.262Z,15.76
2023-04-22T06:38:08.389Z,16.83
2023-04-22T06:40:43.806Z,18.29
2023-04-22T06:43:19.573Z,19.89
2023-04-22T06:46:09.462Z,21.24
2023-04-22T06:48:51.660Z,22.05
2023-04-22T06:51:54.167Z,22.27
2023-04-22T06:54:21.370Z,21.27
2023-04-22T06:56:48.783Z,20.55
2023-04-22T06:59:15.995Z,19.12
2023-04-22T07:01:43.198Z,18.97
2023-04-22T07:04:10.316Z,18.96
2023-04-22T07:06:37.686Z,18.54
2023-04-22T07:09:05.298Z,18.70
2023-04-22T07:11:32.960Z,18.58
2023-04-22T07:14:03.680Z,18.41
2023-04-22T07:16:30.796Z,18.56
2023-04-22T07:18:59.176Z,18.63
2023-04-22T07:21:26.366Z,18.41
2023-04-22T07:23:53.462Z,18.71
2023-04-22T07:26:21.142Z,18.97
2023-04-22T07:28:48.212Z,18.83
2023-04-22T07:31:15.836Z,19.33
2023-04-22T07:33:43.181Z,19.22
2023-04-22T07:36:10.364Z,19.51
2023-04-22T07:38:37.696Z,19.59
2023-04-22T07:41:04.784Z,19.66
2023-04-22T07:43:31.799Z,20.23
2023-04-22T07:45:58.912Z,19.81
2023-04-22T07:48:26.055Z,20.11
2023-04-22T07:50:53.094Z,20.33
2023-04-22T07:53:20.681Z,20.45
2023-04-22T07:55:49.718Z,20.40
2023-04-22T07:58:17.240Z,20.08
2023-04-22T08:00:44.303Z,20.61
2023-04-22T08:03:11.618Z,20.65
2023-04-22T08:05:38.909Z,20.80
2023-04-22T08:08:06.309Z,20.73
2023-04-22T08:10:33.404Z,20.90
2023-04-22T08:13:00.908Z,21.34
2023-04-22T08:15:28.013Z,21.24
2023-04-22T08:17:55.184Z,21.33
2023-04-22T08:20:22.370Z,21.52
2023-04-22T08:22:51.278Z,21.92
2023-04-22T08:25:18.414Z,21.28
2023-04-22T08:27:45.577Z,21.77
2023-04-22T08:30:12.922Z,21.33
2023-04-22T08:32:40.112Z,21.81
2023-04-22T08:35:07.409Z,21.38
2023-04-22T08:37:34.685Z,21.78
2023-04-22T08:40:02.143Z,22.12
2023-04-22T08:42:30.691Z,22.29
2023-04-22T08:44:58.451Z,22.58
2023-04-22T08:47:26.482Z,22.82
2023-04-22T08:49:55.016Z,22.30
2023-04-22T08:52:22.096Z,22.42
2023-04-22T08:54:49.272Z,22.24
2023-04-22T08:57:17.518Z,22.84
2023-04-22T08:59:45.164Z,22.49
2023-04-22T09:02:15.950Z,22.58
2023-04-22T09:04:43.335Z,22.91
2023-04-22T09:07:10.755Z,22.88
2023-04-22T09:09:38.608Z,23.06
2023-04-22T09:12:06.472Z,23.14
2023-04-22T09:14:33.864Z,23.37
2023-04-22T09:17:02.830Z,23.57
2023-04-22T09:19:29.970Z,24.10
2023-04-22T09:21:59.980Z,23.95
2023-04-22T09:24:27.171Z,23.16
2023-04-22T09:26:55.326Z,23.70
2023-04-22T09:29:22.386Z,23.67
2023-04-22T09:31:50.462Z,23.82
2023-04-22T09:34:17.589Z,23.65
2023-04-22T09:36:46.778Z,23.67
2023-04-22T09:39:14.548Z,23.64
2023-04-22T09:41:41.707Z,24.22
2023-04-22T09:44:16.033Z,24.41
2023-04-22T09:46:44.069Z,23.78
2023-04-22T09:49:11.412Z,23.77
2023-04-22T09:51:40.519Z,23.84
2023-04-22T09:54:11.641Z,23.52
2023-04-22T09:56:52.129Z,23.33
2023-04-22T09:59:20.792Z,23.07
2023-04-22T10:01:48.531Z,22.80
2023-04-22T10:04:16.452Z,23.18
2023-04-22T10:06:43.628Z,23.45
2023-04-22T10:09:12.335Z,23.05
2023-04-22T10:11:40.708Z,22.52
2023-04-22T10:14:10.608Z,23.05
2023-04-22T10:16:38.645Z,22.68
2023-04-22T10:19:07.289Z,22.49
2023-04-22T10:21:34.800Z,22.80
2023-04-22T10:24:01.855Z,22.87
2023-04-22T10:26:43.940Z,23.24
2023-04-22T10:29:17.237Z,23.02
2023-04-22T10:31:45.542Z,22.71
2023-04-22T10:34:13.646Z,22.84
2023-04-22T10:36:57.227Z,22.94
2023-04-22T10:39:25.462Z,22.43
2023-04-22T10:41:53.985Z,22.67
2023-04-22T10:44:22.550Z,22.79
2023-04-22T10:46:52.971Z,22.94
2023-04-22T10:49:23.608Z,23.24
2023-04-22T10:51:51.814Z,22.71
2023-04-22T10:54:44.619Z,22.92
2023-04-22T10:57:19.358Z,22.87
2023-04-22T10:59:53.860Z,23.06
2023-04-22T11:02:22.083Z,22.95
2023-04-22T11:04:50.040Z,23.19
2023-04-22T11:07:26.959Z,22.93
2023-04-22T11:10:01.692Z,23.12
2023-04-22T11:12:35.086Z,23.06
2023-04-22T11:15:05.375Z,22.96
2023-04-22T11:17:32.718Z,23.17
2023-04-22T11:20:00.238Z,22.98
2023-04-22T11:22:27.708Z,22.99
2023-04-22T11:24:58.340Z,22.84
2023-04-22T11:27:30.273Z,23.09
2023-04-22T11:30:09.856Z,23.23
2023-04-22T11:32:38.017Z,23.48
2023-04-22T11:35:14.963Z,23.61
2023-04-22T11:37:42.100Z,23.66
2023-04-22T11:40:28.254Z,23.62
2023-04-22T11:42:57.647Z,23.83
2023-04-22T11:45:24.992Z,23.89
2023-04-22T11:47:52.554Z,24.03
2023-04-22T11:50:23.887Z,24.27
2023-04-22T11:52:57.068Z,24.16
2023-04-22T11:55:24.817Z,24.20
2023-04-22T11:57:56.384Z,24.12
2023-04-22T12:00:24.756Z,24.10
2023-04-22T12:02:58.969Z,23.94
2023-04-22T12:05:32.672Z,23.93
2023-04-22T12:08:00.420Z,24.45
2023-04-22T12:10:27.554Z,24.29
2023-04-22T12:12:54.748Z,24.65
2023-04-22T12:15:21.864Z,24.40
2023-04-22T12:17:52.705Z,24.17
2023-04-22T12:20:19.964Z,24.07
2023-04-22T12:22:47.046Z,24.45
2023-04-22T12:25:17.616Z,24.39
2023-04-22T12:27:44.768Z,24.46
2023-04-22T12:30:12.155Z,24.45
2023-04-22T12:32:39.401Z,24.50
2023-04-22T12:35:08.532Z,24.51
2023-04-22T12:37:35.859Z,24.36
2023-04-22T12:40:04.003Z,24.55
2023-04-22T12:42:31.319Z,24.12
2023-04-22T12:44:58.342Z,23.38
2023-04-22T12:47:25.462Z,23.91
2023-04-22T12:49:52.647Z,23.95
2023-04-22T12:52:19.690Z,23.76
2023-04-22T12:54:46.813Z,23.81
2023-04-22T12:57:13.894Z,23.65
2023-04-22T12:59:41.300Z,23.45
2023-04-22T13:02:08.712Z,23.20
2023-04-22T13:04:36.060Z,23.38
2023-04-22T13:07:03.269Z,22.87
2023-04-22T13:09:30.497Z,23.30
2023-04-22T13:11:58.323Z,23.04
2023-04-22T13:14:25.590Z,23.21
2023-04-22T13:16:52.694Z,23.17
2023-04-22T13:19:19.907Z,23.22
2023-04-22T13:21:46.988Z,22.99
2023-04-22T13:24:14.053Z,23.32
2023-04-22T13:26:41.232Z,23.43
2023-04-22T13:29:11.170Z,23.54
2023-04-22T13:31:38.723Z,23.34
2023-04-22T13:34:05.941Z,22.85
2023-04-22T13:36:33.093Z,23.12
2023-04-22T13:39:00.562Z,23.11
2023-04-22T13:41:27.668Z,23.05
2023-04-22T13:43:56.132Z,22.87
2023-04-22T13:46:23.433Z,23.14
2023-04-22T13:48:50.564Z,23.34
2023-04-22T13:51:17.682Z,23.30
2023-04-22T13:53:45.152Z,23.41
2023-04-22T13:56:12.778Z,23.64
2023-04-22T13:58:40.953Z,23.71
2023-04-22T14:01:08.172Z,23.64
2023-04-22T14:03:35.946Z,23.67
2023-04-22T14:06:03.882Z,23.64
2023-04-22T14:08:31.001Z,23.63
2023-04-22T14:10:59.404Z,23.74
2023-04-22T14:13:27.178Z,23.54
2023-04-22T14:15:54.297Z,23.73
2023-04-22T14:18:24.423Z,23.74
2023-04-22T14:20:52.391Z,23.71
2023-04-22T14:23:19.775Z,23.36
2023-04-22T14:25:47.632Z,23.40
2023-04-22T14:28:15.236Z,23.58
2023-04-22T14:30:42.813Z,23.34
2023-04-22T14:33:10.115Z,23.76
2023-04-22T14:35:37.672Z,23.48
2023-04-22T14:38:05.946Z,23.43
2023-04-22T14:40:33.203Z,23.38
2023-04-22T14:43:01.197Z,23.07
2023-04-22T14:45:29.123Z,23.03
2023-04-22T14:47:56.932Z,23.01
2023-04-22T14:50:24.111Z,23.11
2023-04-22T14:52:51.410Z,23.09
2023-04-22T14:55:23.183Z,23.00
2023-04-22T14:58:06.967Z,22.79
2023-04-22T15:00:34.159Z,22.67
2023-04-22T15:03:01.462Z,22.61
2023-04-22T15:05:28.811Z,22.54
2023-04-22T15:07:57.713Z,22.60
2023-04-22T15:10:24.900Z,22.47
2023-04-22T15:12:51.940Z,22.25
2023-04-22T15:15:19.463Z,22.42
2023-04-22T15:17:46.723Z,22.43
2023-04-22T15:20:13.813Z,22.49
2023-04-22T15:22:41.341Z,22.60
2023-04-22T15:25:09.186Z,22.78
2023-04-22T15:27:37.082Z,22.69
2023-04-22T15:30:06.024Z,22.66
2023-04-22T15:32:33.176Z,22.68
2023-04-22T15:35:00.890Z,22.59
2023-04-22T15:37:28.057Z,22.58
2023-04-22T15:39:55.251Z,22.54
2023-04-22T15:42:22.344Z,22.52
2023-04-22T15:44:49.456Z,22.61
2023-04-22T15:47:17.516Z,22.28
2023-04-22T15:49:44.688Z,22.31
2023-04-22T15:52:11.775Z,22.36
2023-04-22T15:54:38.945Z,22.09
2023-04-22T15:57:06.090Z,22.00
2023-04-22T15:59:33.136Z,22.00
2023-04-22T16:02:00.517Z,22.06
2023-04-22T16:04:28.204Z,21.96
2023-04-22T16:06:57.399Z,21.96
2023-04-22T16:09:24.528Z,21.96
2023-04-22T16:11:52.451Z,21.97
2023-04-22T16:14:19.581Z,21.88
2023-04-22T16:16:46.977Z,21.92
2023-04-22T16:19:14.394Z,21.81
2023-04-22T16:21:41.498Z,21.83
2023-04-22T16:24:08.762Z,21.75
2023-04-22T16:26:35.797Z,21.65
2023-04-22T16:29:02.971Z,21.63
2023-04-22T16:31:30.053Z,21.57
2023-04-22T16:33:58.486Z,21.54
2023-04-22T16:36:25.592Z,21.48
2023-04-22T16:38:52.775Z,21.34
2023-04-22T16:41:20.638Z,21.36
2023-04-22T16:43:47.792Z,21.33
2023-04-22T16:46:14.917Z,21.30
2023-04-22T16:48:42.084Z,21.33
2023-04-22T16:51:09.213Z,21.25
2023-04-22T16:53:36.362Z,21.25
2023-04-22T16:56:03.465Z,21.18
2023-04-22T16:58:30.595Z,21.21
2023-04-22T17:00:58.008Z,21.07
2023-04-22T17:03:25.505Z,21.06
2023-04-22T17:05:53.196Z,21.03
2023-04-22T17:08:20.327Z,20.97
2023-04-22T17:10:48.200Z,20.93
2023-04-22T17:13:15.442Z,20.86
2023-04-22T17:15:42.549Z,20.82
2023-04-22T17:18:09.699Z,20.78
2023-04-22T17:20:37.269Z,20.76
2023-04-22T17:23:04.474Z,20.71
2023-04-22T17:25:31.768Z,20.67
2023-04-22T17:27:58.886Z,20.65
2023-04-22T17:30:26.007Z,20.69
2023-04-22T17:32:53.179Z,20.60
2023-04-22T17:35:20.356Z,20.51
2023-04-22T17:37:47.461Z,20.46
2023-04-22T17:40:14.568Z,20.33
2023-04-22T17:45:11.929Z,20.17
2023-04-22T17:47:39.084Z,20.09
2023-04-22T17:50:06.756Z,20.00
2023-04-22T17:52:34.045Z,19.95
2023-04-22T17:55:01.079Z,19.83
2023-04-22T17:57:28.431Z,19.87
2023-04-22T17:59:55.668Z,19.81
2023-04-22T18:02:23.508Z,19.75
2023-04-22T18:04:50.919Z,19.66
2023-04-22T18:07:18.089Z,19.67
2023-04-22T18:09:45.600Z,19.60
2023-04-22T18:12:12.742Z,19.50
2023-04-22T18:14:39.872Z,19.47
2023-04-22T18:17:07.075Z,19.45
2023-04-22T18:19:34.220Z,19.39
2023-04-22T18:22:01.372Z,19.31
2023-04-22T18:24:28.636Z,19.23
2023-04-22T18:26:55.755Z,19.18
2023-04-22T18:29:22.838Z,19.14
2023-04-22T18:31:49.929Z,19.10
2023-04-22T18:34:17.038Z,19.05
2023-04-22T18:36:44.170Z,19.02
2023-04-22T18:39:11.459Z,19.04
2023-04-22T18:41:39.981Z,18.99
2023-04-22T18:44:07.092Z,18.93
2023-04-22T18:46:34.119Z,18.89
2023-04-22T18:49:01.323Z,18.89
2023-04-22T18:51:29.824Z,18.84
2023-04-22T18:53:57.017Z,18.78
2023-04-22T18:56:24.047Z,18.77
2023-04-22T18:58:51.444Z,18.79
2023-04-22T19:01:18.552Z,18.78
2023-04-22T19:03:46.460Z,18.80
2023-04-22T19:06:13.606Z,18.78
2023-04-22T19:08:40.840Z,18.75
2023-04-22T19:11:07.987Z,18.72
2023-04-22T19:13:35.192Z,18.66
2023-04-22T19:16:02.293Z,18.65
2023-04-22T19:18:29.559Z,18.60
2023-04-22T19:20:56.612Z,18.55
2023-04-22T19:23:23.910Z,18.57
2023-04-22T19:25:51.675Z,18.55
2023-04-22T19:28:18.957Z,18.52
2023-04-22T19:30:46.190Z,18.46
2023-04-22T19:33:13.262Z,18.42
2023-04-22T19:35:40.433Z,18.51
2023-04-22T19:38:07.660Z,18.54
2023-04-22T19:40:34.851Z,18.62
2023-04-22T19:43:02.032Z,18.72
2023-04-22T19:45:29.935Z,18.68
2023-04-22T19:47:57.212Z,18.66
2023-04-22T19:50:24.441Z,18.59
2023-04-22T19:52:57.711Z,18.61
2023-04-22T19:55:24.832Z,18.61
2023-04-22T19:57:52.120Z,18.57
2023-04-22T20:00:19.413Z,18.60
2023-04-22T20:02:46.783Z,18.60
2023-04-22T20:05:14.270Z,18.48
2023-04-22T20:07:43.076Z,18.45
2023-04-22T20:10:10.376Z,18.36
2023-04-22T20:12:37.556Z,18.40
2023-04-22T20:15:05.729Z,18.31
2023-04-22T20:17:35.912Z,18.28
2023-04-22T20:20:06.814Z,18.24
2023-04-22T20:22:34.894Z,18.25
2023-04-22T20:25:03.745Z,18.23
2023-04-22T20:27:32.381Z,18.17
2023-04-22T20:30:00.337Z,18.15
2023-04-22T20:32:28.070Z,18.16
2023-04-22T20:34:55.844Z,18.03
2023-04-22T20:37:23.484Z,18.21
2023-04-22T20:39:50.970Z,18.34
2023-04-22T20:42:18.764Z,18.17
2023-04-22T20:44:46.267Z,18.01
2023-04-22T20:47:13.833Z,17.97
2023-04-22T20:49:42.070Z,17.93
2023-04-22T20:52:09.739Z,17.67
2023-04-22T20:54:37.521Z,17.66
2023-04-22T20:57:05.973Z,17.66
2023-04-22T20:59:33.544Z,17.55
2023-04-22T21:02:00.920Z,17.50
2023-04-22T21:04:28.254Z,17.47
2023-04-22T21:06:56.088Z,17.46
2023-04-22T21:09:26.044Z,17.47
2023-04-22T21:11:53.397Z,17.35
2023-04-22T21:14:22.364Z,17.38
2023-04-22T21:17:10.308Z,17.23
2023-04-22T21:19:38.041Z,17.06
2023-04-22T21:22:06.187Z,16.98
2023-04-22T21:24:35.085Z,16.92
2023-04-22T21:27:02.947Z,16.83
2023-04-22T21:29:30.292Z,16.81
2023-04-22T21:32:08.252Z,16.90
2023-04-22T21:34:36.932Z,16.83
2023-04-22T21:37:04.947Z,16.82
2023-04-22T21:39:32.063Z,16.85
2023-04-22T21:41:59.105Z,16.81
2023-04-22T21:44:26.181Z,16.80
2023-04-22T21:46:53.247Z,16.80
2023-04-22T21:49:20.586Z,16.82
2023-04-22T21:51:47.842Z,16.79
2023-04-22T21:54:14.913Z,16.69
2023-04-22T21:56:42.052Z,16.66
2023-04-22T21:59:09.168Z,16.72
2023-04-22T22:01:36.262Z,16.67
2023-04-22T22:04:03.636Z,16.64
2023-04-22T22:06:30.860Z,16.58
2023-04-22T22:08:57.919Z,16.69
2023-04-22T22:11:31.019Z,16.72
2023-04-22T22:13:58.844Z,16.63
2023-04-22T22:16:26.150Z,16.62
2023-04-22T22:18:53.424Z,16.57
2023-04-22T22:21:20.460Z,16.57
2023-04-22T22:23:47.511Z,16.53
2023-04-22T22:26:14.587Z,16.46
2023-04-22T22:28:41.753Z,16.41
2023-04-22T22:31:09.009Z,16.41
2023-04-22T22:33:36.045Z,16.32
2023-04-22T22:36:03.160Z,16.35
2023-04-22T22:38:30.249Z,16.37
2023-04-22T22:40:57.336Z,16.26
2023-04-22T22:43:24.479Z,16.32
2023-04-22T22:45:51.577Z,16.38
2023-04-22T22:48:18.925Z,16.37
2023-04-22T22:50:49.120Z,16.40
2023-04-22T22:53:16.179Z,16.38
2023-04-22T22:55:43.259Z,16.34
2023-04-22T22:58:10.330Z,16.26
2023-04-22T23:00:37.442Z,16.14
2023-04-22T23:03:04.741Z,16.12
2023-04-22T23:05:31.963Z,16.13
2023-04-22T23:07:59.051Z,16.15
2023-04-22T23:10:26.184Z,16.05
2023-04-22T23:12:53.292Z,15.96
2023-04-22T23:15:20.385Z,15.84
2023-04-22T23:17:49.708Z,15.86
2023-04-22T23:20:17.338Z,15.94
2023-04-22T23:22:45.003Z,16.00
2023-04-22T23:25:12.447Z,16.10
2023-04-22T23:27:40.580Z,16.09
2023-04-22T23:30:07.979Z,16.01
2023-04-22T23:32:35.695Z,16.10
2023-04-22T23:35:03.716Z,16.03
2023-04-22T23:37:31.404Z,16.03
2023-04-22T23:39:58.563Z,16.07
2023-04-22T23:42:25.934Z,16.06
2023-04-22T23:44:52.947Z,16.02
2023-04-22T23:47:20.109Z,15.97
2023-04-22T23:49:47.614Z,16.01
2023-04-22T23:52:14.649Z,15.98
2023-04-22T23:54:42.106Z,15.99
2023-04-22T23:57:09.544Z,15.84
2023-04-22T23:59:36.743Z,15.89
